createdAt,value
2018-08-07T00:00:21.602Z,40.45
2018-08-07T00:02:51.880Z,40.11
2018-08-07T00:05:21.233Z,40.24
2018-08-07T00:07:53.460Z,40.42
2018-08-07T00:10:24.041Z,40.32
2018-08-07T00:12:53.919Z,41.13
2018-08-07T00:15:27.146Z,40.46
2018-08-07T00:17:56.418Z,41.47
2018-08-07T00:20:25.730Z,41.23
2018-08-07T00:22:55.342Z,40.07
2018-08-07T00:25:24.637Z,40.13
2018-08-07T00:27:53.976Z,40.64
2018-08-07T00:30:23.720Z,41.33
2018-08-07T00:32:52.995Z,41.24
2018-08-07T00:35:22.303Z,42.58
2018-08-07T00:37:51.586Z,41.10
2018-08-07T00:40:33.121Z,41.71
2018-08-07T00:43:02.460Z,42.04
2018-08-07T00:45:31.715Z,41.15
2018-08-07T00:48:01.159Z,42.46
2018-08-07T00:50:30.473Z,42.12
2018-08-07T00:52:59.989Z,42.03
2018-08-07T00:55:29.287Z,41.57
2018-08-07T00:57:58.555Z,41.05
2018-08-07T01:00:27.919Z,41.03
2018-08-07T01:02:57.157Z,41.24
2018-08-07T01:05:26.550Z,42.18
2018-08-07T01:07:55.798Z,42.28
2018-08-07T01:10:25.075Z,42.30
2018-08-07T01:12:54.317Z,42.24
2018-08-07T01:15:23.591Z,42.27
2018-08-07T01:17:52.839Z,42.22
2018-08-07T01:20:23.971Z,42.45
2018-08-07T01:22:53.297Z,42.75
2018-08-07T01:25:25.155Z,43.14
2018-08-07T01:27:54.586Z,43.53
2018-08-07T01:30:26.666Z,43.48
2018-08-07T01:32:57.232Z,43.35
2018-08-07T01:35:27.613Z,42.81
2018-08-07T01:37:57.267Z,43.20
2018-08-07T01:40:26.934Z,43.96
2018-08-07T01:42:56.857Z,44.08
2018-08-07T01:45:26.218Z,43.90
2018-08-07T01:47:55.960Z,43.75
2018-08-07T01:50:25.630Z,44.27
2018-08-07T01:52:54.969Z,44.71
2018-08-07T01:55:26.621Z,45.01
2018-08-07T01:57:56.167Z,45.24
2018-08-07T02:00:25.610Z,44.59
2018-08-07T02:02:55.386Z,45.00
2018-08-07T02:05:25.470Z,44.60
2018-08-07T02:07:55.034Z,45.80
2018-08-07T02:10:24.683Z,46.19
2018-08-07T02:12:54.193Z,45.91
2018-08-07T02:15:23.659Z,45.67
2018-08-07T02:17:53.021Z,46.32
2018-08-07T02:20:22.515Z,46.29
2018-08-07T02:22:51.987Z,46.21
2018-08-07T02:25:21.868Z,45.55
2018-08-07T02:27:51.463Z,46.11
2018-08-07T02:30:20.846Z,46.59
2018-08-07T02:32:50.673Z,46.89
2018-08-07T02:35:20.548Z,45.95
2018-08-07T02:37:50.103Z,45.63
2018-08-07T02:40:19.562Z,46.50
2018-08-07T02:42:49.112Z,46.90
2018-08-07T02:45:19.687Z,46.65
2018-08-07T02:47:49.953Z,46.42
2018-08-07T02:50:20.957Z,46.59
2018-08-07T02:52:50.363Z,46.47
2018-08-07T02:55:19.720Z,46.65
2018-08-07T02:57:49.104Z,47.72
2018-08-07T03:00:21.792Z,46.83
2018-08-07T03:02:51.343Z,46.75
2018-08-07T03:05:21.516Z,47.75
2018-08-07T03:07:51.432Z,47.87
2018-08-07T03:10:21.035Z,48.05
2018-08-07T03:12:50.358Z,48.45
2018-08-07T03:15:20.706Z,47.81
2018-08-07T03:17:50.587Z,47.61
2018-08-07T03:20:21.423Z,47.50
2018-08-07T03:22:51.008Z,48.43
2018-08-07T03:25:20.527Z,48.18
2018-08-07T03:27:50.216Z,47.98
2018-08-07T03:30:20.897Z,48.63
2018-08-07T03:32:50.263Z,48.50
2018-08-07T03:35:19.755Z,48.14
2018-08-07T03:37:49.276Z,48.65
2018-08-07T03:40:19.960Z,48.59
2018-08-07T03:42:49.667Z,48.63
2018-08-07T03:45:19.745Z,48.25
2018-08-07T03:47:49.784Z,48.30
2018-08-07T03:50:19.630Z,47.61
2018-08-07T03:52:49.175Z,47.49
2018-08-07T03:55:19.915Z,49.58
2018-08-07T03:57:49.615Z,47.95
2018-08-07T04:00:21.526Z,48.27
2018-08-07T04:02:51.271Z,48.31
2018-08-07T04:05:20.762Z,48.22
2018-08-07T04:07:50.099Z,48.86
2018-08-07T04:10:20.022Z,47.88
2018-08-07T04:12:49.417Z,48.72
2018-08-07T04:15:19.565Z,49.13
2018-08-07T04:17:49.017Z,49.15
2018-08-07T04:20:19.367Z,49.53
2018-08-07T04:22:49.061Z,48.92
2018-08-07T04:25:18.621Z,48.01
2018-08-07T04:27:48.195Z,48.37
2018-08-07T04:30:19.015Z,47.47
2018-08-07T04:32:49.078Z,48.20
2018-08-07T04:35:18.830Z,47.76
2018-08-07T04:37:48.526Z,46.85
2018-08-07T04:40:17.898Z,48.38
2018-08-07T04:42:47.199Z,48.61
2018-08-07T04:45:17.874Z,47.57
2018-08-07T04:47:47.919Z,48.27
2018-08-07T04:50:17.489Z,47.59
2018-08-07T04:52:46.942Z,46.76
2018-08-07T04:55:16.759Z,46.93
2018-08-07T04:57:46.402Z,46.67
2018-08-07T05:00:17.906Z,45.86
2018-08-07T05:02:47.970Z,45.90
2018-08-07T05:05:17.865Z,46.22
2018-08-07T05:07:47.552Z,45.39
2018-08-07T05:10:18.185Z,45.42
2018-08-07T05:12:47.911Z,46.00
2018-08-07T05:15:17.993Z,45.95
2018-08-07T05:17:48.276Z,45.98
2018-08-07T05:20:17.892Z,45.43
2018-08-07T05:22:47.223Z,45.58
2018-08-07T05:25:16.690Z,44.94
2018-08-07T05:27:46.061Z,46.15
2018-08-07T05:30:17.005Z,45.67
2018-08-07T05:32:46.679Z,46.65
2018-08-07T05:35:16.390Z,46.02
2018-08-07T05:37:45.739Z,45.75
2018-08-07T05:40:15.479Z,45.05
2018-08-07T05:42:44.882Z,45.39
2018-08-07T05:45:16.483Z,44.89
2018-08-07T05:47:45.837Z,45.27
2018-08-07T05:50:16.782Z,44.56
2018-08-07T05:52:46.013Z,44.58
2018-08-07T05:55:15.433Z,44.86
2018-08-07T05:57:44.924Z,44.14
2018-08-07T06:00:18.739Z,43.71
2018-08-07T06:02:49.115Z,44.41
2018-08-07T06:05:18.823Z,43.04
2018-08-07T06:07:49.195Z,43.55
2018-08-07T06:10:18.449Z,43.52
2018-08-07T06:12:47.854Z,42.51
2018-08-07T06:15:17.993Z,42.39
2018-08-07T06:17:48.080Z,41.35
2018-08-07T06:20:17.438Z,41.86
2018-08-07T06:22:46.781Z,40.87
2018-08-07T06:25:16.171Z,40.67
2018-08-07T06:27:45.531Z,40.38
2018-08-07T06:30:17.685Z,40.03
2018-08-07T06:32:48.394Z,38.76
2018-08-07T06:35:18.462Z,39.44
2018-08-07T06:37:47.983Z,39.56
2018-08-07T06:40:17.301Z,39.05
2018-08-07T06:42:46.676Z,39.31
2018-08-07T06:45:17.886Z,38.89
2018-08-07T06:47:47.307Z,37.75
2018-08-07T06:50:18.309Z,38.45
2018-08-07T06:52:48.293Z,38.31
2018-08-07T06:55:17.747Z,37.49
2018-08-07T06:57:47.101Z,36.59
2018-08-07T07:00:20.004Z,37.22
2018-08-07T07:02:49.673Z,37.45
2018-08-07T07:05:19.335Z,36.73
2018-08-07T07:07:48.835Z,35.96
2018-08-07T07:10:18.206Z,35.75
2018-08-07T07:12:47.976Z,35.63
2018-08-07T07:15:18.125Z,34.96
2018-08-07T07:17:48.319Z,34.42
2018-08-07T07:20:19.048Z,34.53
2018-08-07T07:22:49.706Z,34.97
2018-08-07T07:25:18.961Z,34.11
2018-08-07T07:27:48.435Z,33.80
2018-08-07T07:30:20.695Z,34.30
2018-08-07T07:32:51.419Z,33.84
2018-08-07T07:35:20.871Z,33.91
2018-08-07T07:37:50.275Z,33.09
2018-08-07T07:40:19.643Z,33.03
2018-08-07T07:42:48.935Z,32.11
2018-08-07T07:45:19.259Z,31.75
2018-08-07T07:47:48.580Z,31.97
2018-08-07T07:50:20.636Z,32.59
2018-08-07T07:52:50.027Z,32.73
2018-08-07T07:55:20.109Z,31.82
2018-08-07T07:57:49.503Z,31.61
2018-08-07T08:00:26.187Z,31.95
2018-08-07T08:02:55.496Z,31.28
2018-08-07T08:05:26.427Z,32.14
2018-08-07T08:07:56.173Z,30.62
2018-08-07T08:10:25.974Z,30.06
2018-08-07T08:12:55.420Z,30.20
2018-08-07T08:15:24.756Z,31.12
2018-08-07T08:17:54.019Z,29.32
2018-08-07T08:20:25.495Z,29.17
2018-08-07T08:22:55.762Z,29.46
2018-08-07T08:25:25.068Z,28.64
2018-08-07T08:27:54.384Z,29.31
2018-08-07T08:30:23.755Z,29.39
2018-08-07T08:32:53.012Z,28.84
2018-08-07T08:35:22.270Z,28.94
2018-08-07T08:37:51.523Z,29.58
2018-08-07T08:40:23.739Z,29.29
2018-08-07T08:42:53.273Z,27.59
2018-08-07T08:45:24.812Z,27.53
2018-08-07T08:47:57.494Z,26.95
2018-08-07T08:50:26.926Z,27.16
2018-08-07T08:52:56.251Z,26.09
2018-08-07T08:55:25.491Z,26.74
2018-08-07T08:57:55.169Z,26.07
2018-08-07T09:00:30.885Z,25.85
2018-08-07T09:03:02.144Z,26.08
2018-08-07T09:05:32.393Z,24.80
2018-08-07T09:08:01.652Z,25.24
2018-08-07T09:10:32.621Z,24.44
2018-08-07T09:13:02.876Z,25.02
2018-08-07T09:15:32.267Z,24.06
2018-08-07T09:18:01.671Z,24.03
2018-08-07T09:20:32.700Z,22.53
2018-08-07T09:23:02.200Z,22.14
2018-08-07T09:25:32.423Z,22.92
2018-08-07T09:28:01.540Z,22.83
2018-08-07T09:30:31.545Z,23.45
2018-08-07T09:33:01.205Z,23.53
2018-08-07T09:35:30.429Z,22.41
2018-08-07T09:37:59.957Z,21.83
2018-08-07T09:40:29.244Z,22.80
2018-08-07T09:42:58.867Z,23.07
2018-08-07T09:45:30.574Z,22.67
2018-08-07T09:48:00.863Z,22.45
2018-08-07T09:50:30.061Z,23.12
2018-08-07T09:52:59.344Z,22.19
2018-08-07T09:55:28.534Z,22.87
2018-08-07T09:57:57.842Z,23.27
2018-08-07T10:00:32.573Z,22.63
2018-08-07T10:03:06.375Z,22.40
2018-08-07T10:05:35.670Z,23.17
2018-08-07T10:08:04.869Z,22.28
2018-08-07T10:10:34.269Z,22.72
2018-08-07T10:13:03.716Z,21.62
2018-08-07T10:15:32.996Z,21.94
2018-08-07T10:18:02.319Z,21.89
2018-08-07T10:20:31.856Z,21.73
2018-08-07T10:23:01.100Z,21.66
2018-08-07T10:25:30.380Z,20.71
2018-08-07T10:27:59.664Z,21.36
2018-08-07T10:30:29.450Z,21.26
2018-08-07T10:32:58.700Z,21.15
2018-08-07T10:35:28.108Z,21.03
2018-08-07T10:37:57.381Z,20.67
2018-08-07T10:40:27.851Z,20.97
2018-08-07T10:42:57.368Z,21.69
2018-08-07T10:45:27.119Z,21.31
2018-08-07T10:47:56.403Z,20.92
2018-08-07T10:51:01.204Z,20.33
2018-08-07T10:53:30.485Z,19.61
2018-08-07T10:55:59.762Z,19.62
2018-08-07T10:58:29.156Z,19.26
2018-08-07T11:00:58.445Z,20.21
2018-08-07T11:03:27.739Z,19.97
2018-08-07T11:05:57.043Z,20.33
2018-08-07T11:08:26.301Z,20.00
2018-08-07T11:10:55.563Z,20.35
2018-08-07T11:13:24.847Z,20.63
2018-08-07T11:15:54.154Z,21.20
2018-08-07T11:18:23.457Z,20.52
2018-08-07T11:20:53.354Z,21.55
2018-08-07T11:23:22.780Z,20.90
2018-08-07T11:25:52.214Z,19.92
2018-08-07T11:28:21.439Z,20.34
2018-08-07T11:30:50.973Z,19.55
2018-08-07T11:33:20.187Z,19.70
2018-08-07T11:35:49.458Z,19.92
2018-08-07T11:38:18.821Z,19.85
2018-08-07T11:40:48.161Z,19.23
2018-08-07T11:43:17.515Z,20.29
2018-08-07T11:45:46.737Z,19.59
2018-08-07T11:48:16.002Z,20.16
2018-08-07T11:50:45.265Z,20.09
2018-08-07T11:53:14.517Z,20.03
2018-08-07T11:55:43.823Z,19.73
2018-08-07T11:58:13.093Z,20.11
2018-08-07T12:00:42.317Z,19.39
2018-08-07T12:03:12.662Z,20.32
2018-08-07T12:05:42.205Z,20.39
2018-08-07T12:08:11.420Z,19.72
2018-08-07T12:10:40.645Z,20.46
2018-08-07T12:13:09.896Z,19.08
2018-08-07T12:15:39.309Z,18.99
2018-08-07T12:18:08.716Z,19.54
2018-08-07T12:20:38.234Z,18.98
2018-08-07T12:23:08.202Z,19.23
2018-08-07T12:25:37.583Z,19.44
2018-08-07T12:28:07.557Z,19.29
2018-08-07T12:30:36.876Z,19.20
2018-08-07T12:33:06.664Z,19.14
2018-08-07T12:35:36.115Z,20.22
2018-08-07T12:38:05.383Z,19.38
2018-08-07T12:40:34.613Z,19.31
2018-08-07T12:43:04.629Z,19.35
2018-08-07T12:45:33.881Z,19.28
2018-08-07T12:48:03.104Z,19.58
2018-08-07T12:50:32.479Z,19.33
2018-08-07T12:53:01.785Z,19.34
2018-08-07T12:55:31.063Z,19.10
2018-08-07T12:58:00.341Z,19.01
2018-08-07T13:00:32.112Z,19.10
2018-08-07T13:03:01.427Z,18.27
2018-08-07T13:05:30.816Z,18.10
2018-08-07T13:08:00.045Z,17.68
2018-08-07T13:10:29.736Z,16.79
2018-08-07T13:12:58.968Z,17.44
2018-08-07T13:15:28.199Z,18.38
2018-08-07T13:17:57.431Z,17.40
2018-08-07T13:20:26.693Z,17.62
2018-08-07T13:22:55.908Z,18.11
2018-08-07T13:25:25.180Z,18.69
2018-08-07T13:27:54.603Z,18.56
2018-08-07T13:30:25.880Z,18.52
2018-08-07T13:32:55.524Z,18.66
2018-08-07T13:35:24.791Z,18.33
2018-08-07T13:37:54.280Z,18.59
2018-08-07T13:40:24.729Z,18.20
2018-08-07T13:42:53.989Z,17.82
2018-08-07T13:45:25.023Z,18.31
2018-08-07T13:47:54.289Z,18.17
2018-08-07T13:50:25.878Z,18.50
2018-08-07T13:52:55.291Z,18.69
2018-08-07T13:55:25.629Z,18.86
2018-08-07T13:57:55.054Z,18.97
2018-08-07T14:00:28.586Z,18.16
2018-08-07T14:02:58.898Z,17.43
2018-08-07T14:05:29.215Z,17.76
2018-08-07T14:07:59.012Z,18.48
2018-08-07T14:10:29.641Z,18.67
2018-08-07T14:12:59.164Z,18.75
2018-08-07T14:15:29.609Z,19.14
2018-08-07T14:17:58.922Z,18.73
2018-08-07T14:20:28.146Z,19.29
2018-08-07T14:22:57.796Z,18.84
2018-08-07T14:25:28.576Z,17.59
2018-08-07T14:27:58.054Z,17.18
2018-08-07T14:30:30.676Z,18.00
2018-08-07T14:33:03.440Z,17.82
2018-08-07T14:35:32.724Z,17.98
2018-08-07T14:38:02.022Z,18.12
2018-08-07T14:40:31.503Z,18.00
2018-08-07T14:43:00.862Z,18.80
2018-08-07T14:45:30.519Z,18.59
2018-08-07T14:48:00.288Z,18.44
2018-08-07T14:50:30.724Z,19.14
2018-08-07T14:52:59.980Z,18.84
2018-08-07T14:55:29.213Z,19.11
2018-08-07T14:57:58.480Z,18.63
2018-08-07T15:00:29.095Z,18.45
2018-08-07T15:02:58.451Z,18.53
2018-08-07T15:05:27.754Z,18.89
2018-08-07T15:07:57.095Z,18.72
2018-08-07T15:10:27.498Z,18.68
2018-08-07T15:12:56.828Z,18.61
2018-08-07T15:15:28.813Z,18.21
2018-08-07T15:17:58.107Z,18.40
2018-08-07T15:23:15.048Z,19.38
2018-08-07T15:25:44.350Z,19.19
2018-08-07T15:28:13.807Z,18.49
2018-08-07T15:30:43.416Z,18.42
2018-08-07T15:33:13.813Z,19.47
2018-08-07T15:35:43.082Z,18.90
2018-08-07T15:38:12.385Z,18.53
2018-08-07T15:40:41.662Z,18.18
2018-08-07T15:43:11.062Z,18.10
2018-08-07T15:45:40.365Z,18.64
2018-08-07T15:48:09.585Z,18.97
2018-08-07T15:50:38.851Z,18.20
2018-08-07T15:53:08.289Z,18.19
2018-08-07T15:55:40.445Z,18.50
2018-08-07T15:58:09.951Z,18.64
2018-08-07T16:00:39.168Z,18.23
2018-08-07T16:03:08.415Z,18.52
2018-08-07T16:05:37.644Z,18.98
2018-08-07T16:08:06.898Z,19.29
2018-08-07T16:10:36.143Z,19.25
2018-08-07T16:13:05.595Z,19.44
2018-08-07T16:15:34.825Z,19.25
2018-08-07T16:18:04.065Z,19.77
2018-08-07T16:20:33.339Z,19.62
2018-08-07T16:23:02.563Z,20.07
2018-08-07T16:25:31.968Z,19.59
2018-08-07T16:28:01.363Z,19.88
2018-08-07T16:30:30.657Z,19.19
2018-08-07T16:32:59.945Z,19.17
2018-08-07T16:35:29.331Z,19.24
2018-08-07T16:37:58.515Z,19.28
2018-08-07T16:40:27.819Z,19.05
2018-08-07T16:42:57.139Z,19.67
2018-08-07T16:45:26.521Z,19.40
2018-08-07T16:47:55.776Z,19.81
2018-08-07T16:50:28.108Z,20.18
2018-08-07T16:52:58.319Z,20.13
2018-08-07T16:55:29.813Z,19.90
2018-08-07T16:57:59.197Z,20.17
2018-08-07T17:00:28.469Z,19.99
2018-08-07T17:02:57.916Z,20.23
2018-08-07T17:05:27.282Z,20.66
2018-08-07T17:07:56.605Z,20.29
2018-08-07T17:10:28.194Z,19.74
2018-08-07T17:12:57.547Z,20.45
2018-08-07T17:15:26.918Z,20.48
2018-08-07T17:17:57.249Z,20.61
2018-08-07T17:20:27.695Z,20.50
2018-08-07T17:22:56.968Z,20.81
2018-08-07T17:25:26.273Z,20.86
2018-08-07T17:27:55.724Z,21.05
2018-08-07T17:30:27.650Z,20.42
2018-08-07T17:32:57.148Z,21.42
2018-08-07T17:35:27.541Z,21.74
2018-08-07T17:37:59.286Z,22.03
2018-08-07T17:40:29.314Z,22.30
2018-08-07T17:42:58.976Z,21.63
2018-08-07T17:45:28.312Z,22.29
2018-08-07T17:47:57.740Z,22.20
2018-08-07T17:50:27.654Z,22.37
2018-08-07T17:52:58.945Z,22.04
2018-08-07T17:55:28.332Z,22.00
2018-08-07T17:57:59.598Z,21.96
2018-08-07T18:00:29.120Z,22.52
2018-08-07T18:02:59.496Z,22.80
2018-08-07T18:05:28.876Z,22.85
2018-08-07T18:07:58.745Z,22.46
2018-08-07T18:10:28.298Z,22.71
2018-08-07T18:12:57.819Z,22.09
2018-08-07T18:15:27.175Z,22.85
2018-08-07T18:17:56.571Z,23.07
2018-08-07T18:20:27.305Z,23.28
2018-08-07T18:22:56.742Z,23.79
2018-08-07T18:25:26.270Z,23.91
2018-08-07T18:27:55.595Z,24.23
2018-08-07T18:30:25.817Z,23.39
2018-08-07T18:32:55.192Z,23.72
2018-08-07T18:35:25.827Z,24.29
2018-08-07T18:37:55.252Z,24.16
2018-08-07T18:40:24.557Z,24.12
2018-08-07T18:42:54.021Z,24.97
2018-08-07T18:45:23.803Z,25.30
2018-08-07T18:47:53.394Z,25.17
2018-08-07T18:50:23.717Z,25.57
2018-08-07T18:52:53.110Z,25.73
2018-08-07T18:55:22.470Z,25.61
2018-08-07T18:57:52.203Z,25.59
2018-08-07T19:00:24.281Z,25.67
2018-08-07T19:02:53.934Z,26.42
2018-08-07T19:05:24.255Z,25.99
2018-08-07T19:07:53.626Z,26.23
2018-08-07T19:10:22.935Z,26.52
2018-08-07T19:12:52.395Z,26.20
2018-08-07T19:15:22.207Z,27.05
2018-08-07T19:17:51.705Z,27.14
2018-08-07T19:20:22.427Z,28.02
2018-08-07T19:22:52.007Z,27.28
2018-08-07T19:25:21.565Z,27.97
2018-08-07T19:27:51.109Z,28.33
2018-08-07T19:30:22.299Z,27.95
2018-08-07T19:32:51.804Z,28.40
2018-08-07T19:35:21.808Z,29.10
2018-08-07T19:37:51.966Z,28.46
2018-08-07T19:40:21.876Z,29.15
2018-08-07T19:42:51.815Z,28.66
2018-08-07T19:45:21.834Z,28.61
2018-08-07T19:47:51.540Z,29.11
2018-08-07T19:50:22.260Z,28.74
2018-08-07T19:52:51.923Z,28.49
2018-08-07T19:55:22.857Z,29.22
2018-08-07T19:57:52.630Z,29.96
2018-08-07T20:00:26.312Z,29.50
2018-08-07T20:02:57.797Z,29.21
2018-08-07T20:05:27.660Z,28.32
2018-08-07T20:07:57.794Z,27.91
2018-08-07T20:10:27.524Z,29.18
2018-08-07T20:12:57.488Z,28.12
2018-08-07T20:15:28.424Z,29.05
2018-08-07T20:17:58.672Z,28.58
2018-08-07T20:20:28.273Z,28.70
2018-08-07T20:22:58.724Z,28.84
2018-08-07T20:25:28.547Z,28.64
2018-08-07T20:27:58.722Z,29.07
2018-08-07T20:30:28.661Z,28.19
2018-08-07T20:32:59.296Z,28.42
2018-08-07T20:35:29.090Z,29.22
2018-08-07T20:37:58.781Z,28.25
2018-08-07T20:40:28.974Z,28.36
2018-08-07T20:43:00.354Z,28.70
2018-08-07T20:45:30.213Z,29.07
2018-08-07T20:48:00.175Z,28.92
2018-08-07T20:50:29.845Z,28.51
2018-08-07T20:52:59.856Z,28.58
2018-08-07T20:55:29.665Z,29.29
2018-08-07T20:57:59.217Z,28.30
2018-08-07T21:00:29.166Z,29.48
2018-08-07T21:02:58.561Z,28.46
2018-08-07T21:05:28.274Z,29.10
2018-08-07T21:07:58.494Z,29.87
2018-08-07T21:10:29.021Z,29.30
2018-08-07T21:12:58.558Z,28.97
2018-08-07T21:15:27.972Z,29.67
2018-08-07T21:17:57.457Z,29.14
2018-08-07T21:20:26.994Z,28.88
2018-08-07T21:22:56.336Z,29.29
2018-08-07T21:25:25.698Z,28.78
2018-08-07T21:27:57.574Z,29.74
2018-08-07T21:30:30.562Z,29.41
2018-08-07T21:33:00.125Z,30.16
2018-08-07T21:35:29.470Z,29.42
2018-08-07T21:37:58.843Z,29.40
2018-08-07T21:40:28.380Z,29.30
2018-08-07T21:42:57.939Z,29.92
2018-08-07T21:45:27.371Z,28.67
2018-08-07T21:47:57.263Z,29.80
2018-08-07T21:50:27.377Z,30.38
2018-08-07T21:52:56.722Z,29.63
2018-08-07T21:55:26.295Z,30.02
2018-08-07T21:57:55.748Z,30.71
2018-08-07T22:00:47.683Z,30.18
2018-08-07T22:03:16.987Z,30.42
2018-08-07T22:05:46.349Z,30.92
2018-08-07T22:08:16.714Z,31.00
2018-08-07T22:10:46.072Z,30.11
2018-08-07T22:13:15.836Z,31.08
2018-08-07T22:15:45.158Z,30.67
2018-08-07T22:18:14.511Z,31.03
2018-08-07T22:20:43.857Z,31.85
2018-08-07T22:23:13.274Z,31.71
2018-08-07T22:25:42.578Z,32.21
2018-08-07T22:28:12.046Z,31.58
2018-08-07T22:30:41.676Z,31.77
2018-08-07T22:33:11.214Z,32.58
2018-08-07T22:35:40.626Z,32.63
2018-08-07T22:38:10.044Z,33.33
2018-08-07T22:40:39.654Z,32.84
2018-08-07T22:43:09.197Z,33.92
2018-08-07T22:45:38.678Z,33.33
2018-08-07T22:48:09.486Z,33.27
2018-08-07T22:50:38.922Z,34.28
2018-08-07T22:53:08.555Z,33.63
2018-08-07T22:55:38.024Z,34.83
2018-08-07T22:58:07.583Z,35.26
2018-08-07T23:00:37.271Z,34.26
2018-08-07T23:03:07.931Z,34.92
2018-08-07T23:05:38.130Z,35.24
2018-08-07T23:08:08.010Z,36.29
2018-08-07T23:10:37.876Z,36.24
2018-08-07T23:13:08.208Z,35.82
2018-08-07T23:15:38.150Z,34.84
2018-08-07T23:18:07.823Z,36.65
2018-08-07T23:20:37.718Z,35.96
2018-08-07T23:23:07.453Z,36.17
2018-08-07T23:25:37.277Z,35.97
2018-08-07T23:28:06.972Z,36.08
2018-08-07T23:30:36.807Z,35.88
2018-08-07T23:33:06.395Z,35.62
2018-08-07T23:35:36.689Z,36.04
2018-08-07T23:38:06.437Z,36.26
2018-08-07T23:40:36.136Z,37.26
2018-08-07T23:43:05.906Z,36.01
2018-08-07T23:45:35.669Z,36.94
2018-08-07T23:48:05.258Z,37.18
2018-08-07T23:50:35.092Z,37.33
2018-08-07T23:53:04.427Z,38.25
2018-08-07T23:55:33.713Z,37.78
2018-08-07T23:58:03.291Z,37.96
